createdAt,value
2022-09-26T00:00:24.888Z,103.17313
2022-09-26T00:05:26.520Z,94.98039
2022-09-26T00:10:28.217Z,99.55556
2022-09-26T00:15:29.841Z,81.80761
2022-09-26T00:20:31.443Z,94.98039
2022-09-26T00:25:33.067Z,98
2022-09-26T00:30:34.795Z,102.76289
2022-09-26T00:35:36.443Z,82.42697
2022-09-26T00:40:38.061Z,72.06653
2022-09-26T00:45:39.810Z,72.87029
2022-09-26T00:50:41.494Z,81.5
2022-09-26T00:55:43.107Z,104.41667
2022-09-26T01:00:44.711Z,85.2844
2022-09-26T01:05:46.337Z,79.98234
2022-09-26T01:10:48.071Z,77.04536
2022-09-26T01:15:49.644Z,71.80083
2022-09-26T01:20:51.308Z,93.15254
2022-09-26T01:25:52.925Z,84.9611
2022-09-26T01:30:54.597Z,71.80083
2022-09-26T01:35:56.237Z,67.94366
2022-09-26T01:40:57.868Z,76.47312
2022-09-26T01:45:59.602Z,77.33333
2022-09-26T01:51:01.277Z,83.36652
2022-09-26T01:56:02.908Z,118.0113
2022-09-26T02:01:04.592Z,103.58549
2022-09-26T02:06:06.277Z,111.3913
2022-09-26T02:11:07.863Z,94.98039
2022-09-26T02:16:09.509Z,93.15254
2022-09-26T02:21:11.162Z,93.87835
2022-09-26T02:26:12.816Z,84.9611
2022-09-26T02:31:14.671Z,104
2022-09-26T02:36:16.288Z,88.60094
2022-09-26T02:41:18.258Z,73.68421
2022-09-26T02:46:20.003Z,67.69478
2022-09-26T02:51:21.656Z,75.06383
2022-09-26T02:56:23.271Z,85.6092
2022-09-26T03:01:24.959Z,92.07692
2022-09-26T03:06:26.648Z,85.2844
2022-09-26T03:11:28.245Z,80.28319
2022-09-26T03:16:29.868Z,72.60125
2022-09-26T03:21:36.186Z,68.69636
2022-09-26T03:26:38.865Z,67.94366
2022-09-26T03:31:40.607Z,68.19355
2022-09-26T03:36:42.311Z,67.2
2022-09-26T03:41:44.255Z,66.95409
2022-09-26T03:46:45.830Z,66.22222
2022-09-26T03:51:47.453Z,66.22222
2022-09-26T03:56:49.068Z,65.73913
2022-09-26T04:01:50.708Z,65.49901
2022-09-26T04:06:52.342Z,68.19355
2022-09-26T04:11:53.934Z,69.71429
2022-09-26T04:16:55.562Z,76.47312
2022-09-26T04:21:57.242Z,77.04536
2022-09-26T04:26:58.815Z,69.20325
2022-09-26T04:32:00.787Z,69.71429
2022-09-26T04:37:02.505Z,70.48871
2022-09-26T04:42:04.147Z,73.68421
2022-09-26T04:47:05.816Z,81.19376
2022-09-26T04:52:07.460Z,134.12346
2022-09-26T04:57:09.217Z,104.83551
2022-09-26T05:02:11.006Z,111.3913
2022-09-26T05:07:12.686Z,93.51456
2022-09-26T05:12:14.282Z,85.6092
2022-09-26T05:17:16.123Z,94.61125
2022-09-26T05:22:17.725Z,94.61125
2022-09-26T05:27:19.420Z,111.84741
2022-09-26T05:32:21.058Z,98.77387
2022-09-26T05:37:22.673Z,87.92523
2022-09-26T05:42:24.261Z,102.35476
2022-09-26T05:47:25.894Z,96.47525
2022-09-26T05:52:27.478Z,98
2022-09-26T05:57:29.098Z,89.97156
2022-09-26T06:02:30.739Z,96.09877
2022-09-26T06:07:32.349Z,93.87835
2022-09-26T06:12:33.958Z,87.58974
2022-09-26T06:17:35.546Z,99.94937
2022-09-26T06:22:37.184Z,116.54902
2022-09-26T06:27:38.786Z,99.94937
2022-09-26T06:32:40.413Z,91.36842
2022-09-26T06:37:42.057Z,76.47312
2022-09-26T06:42:43.626Z,71.80083
2022-09-26T06:47:45.248Z,67.69478
2022-09-26T06:52:46.844Z,65.49901
2022-09-26T06:57:48.437Z,63.37984
2022-09-26T07:02:50.064Z,62.23417
2022-09-26T07:07:51.665Z,61.55725
2022-09-26T07:12:53.262Z,61.55725
2022-09-26T07:17:54.858Z,61.78203
2022-09-26T07:22:56.460Z,63.37984
2022-09-26T07:27:58.095Z,62.91892
2022-09-26T07:32:59.709Z,62.46154
2022-09-26T07:38:01.339Z,62.91892
2022-09-26T07:43:19.637Z,64.54795
2022-09-26T07:48:21.999Z,71.01031
2022-09-26T07:53:23.607Z,72.06653
2022-09-26T07:58:25.306Z,69.45825
2022-09-26T08:03:26.902Z,67.69478
2022-09-26T08:08:28.544Z,78.49782
2022-09-26T08:13:30.151Z,75.06383
2022-09-26T08:18:31.794Z,87.25581
2022-09-26T08:23:33.415Z,84.63927
2022-09-26T08:28:34.996Z,83.05192
2022-09-26T08:33:36.609Z,81.5
2022-09-26T08:38:38.181Z,77.91304
2022-09-26T08:43:39.790Z,77.62256
2022-09-26T08:48:41.398Z,73.41176
2022-09-26T08:53:42.975Z,69.45825
2022-09-26T08:58:44.549Z,65.73913
2022-09-26T09:03:46.165Z,66.95409
2022-09-26T09:08:47.779Z,70.74897
2022-09-26T09:13:49.401Z,67.69478
2022-09-26T09:18:51.028Z,67.69478
2022-09-26T09:23:52.668Z,66.46521
2022-09-26T09:28:54.308Z,66.22222
2022-09-26T09:33:55.893Z,67.44689
2022-09-26T09:38:57.533Z,65.02161
2022-09-26T09:43:59.134Z,63.14894
2022-09-26T09:49:00.715Z,63.84436
2022-09-26T09:54:02.291Z,63.61165
2022-09-26T09:59:03.912Z,65.02161
2022-09-26T10:04:05.766Z,65.02161
2022-09-26T10:09:36.480Z,64.3125
2022-09-26T10:14:41.471Z,64.07797
2022-09-26T10:19:43.029Z,64.07797
2022-09-26T10:24:44.772Z,63.84436
2022-09-26T10:29:46.370Z,64.54795
2022-09-26T10:34:48.129Z,65.25984
2022-09-26T10:39:49.754Z,67.44689
2022-09-26T10:44:51.319Z,73.14046
2022-09-26T10:49:52.925Z,72.06653
2022-09-26T10:54:54.663Z,77.33333
2022-09-26T10:59:56.273Z,74.23256
2022-09-26T11:04:57.892Z,73.14046
2022-09-26T11:09:59.473Z,74.78556
2022-09-26T11:15:01.095Z,79.98234
2022-09-26T11:20:03.523Z,83.05192
2022-09-26T11:25:05.266Z,79.08772
2022-09-26T11:30:06.835Z,80.28319
2022-09-26T11:35:08.451Z,79.08772
2022-09-26T11:40:10.237Z,77.33333
2022-09-26T11:45:11.914Z,77.91304
2022-09-26T11:50:13.665Z,79.98234
2022-09-26T11:55:15.296Z,83.05192
2022-09-26T12:00:16.912Z,84.9611
2022-09-26T12:05:18.510Z,86.92343
2022-09-26T12:10:20.108Z,90.31829
2022-09-26T12:15:21.703Z,82.11659
2022-09-26T12:20:23.312Z,74.50847
2022-09-26T12:25:24.929Z,71.53623
2022-09-26T12:30:26.605Z,70.48871
2022-09-26T12:35:28.196Z,73.14046
2022-09-26T12:40:29.844Z,71.27273
2022-09-26T12:45:31.577Z,73.68421
2022-09-26T12:50:33.196Z,73.68421
2022-09-26T12:55:34.888Z,69.45825
2022-09-26T13:00:36.519Z,67.94366
2022-09-26T13:05:38.128Z,67.69478
2022-09-26T13:10:39.745Z,67.94366
2022-09-26T13:15:41.395Z,67.94366
2022-09-26T13:20:43.021Z,66.70916
2022-09-26T13:25:49.264Z,66.22222
2022-09-26T13:30:51.468Z,66.70916
2022-09-26T13:35:53.145Z,67.69478
2022-09-26T13:40:54.825Z,67.69478
2022-09-26T13:45:56.556Z,68.44444
2022-09-26T13:50:58.251Z,67.94366
2022-09-26T13:55:59.901Z,66.95409
2022-09-26T14:01:01.548Z,67.44689
2022-09-26T14:06:03.171Z,67.44689
2022-09-26T14:11:04.822Z,66.22222
2022-09-26T14:16:06.520Z,68.69636
2022-09-26T14:21:08.210Z,69.45825
2022-09-26T14:26:09.820Z,74.23256
2022-09-26T14:31:11.575Z,73.95781
2022-09-26T14:36:13.241Z,72.33333
2022-09-26T14:41:14.874Z,72.33333
2022-09-26T14:46:16.522Z,75.62393
2022-09-26T14:51:18.185Z,75.34328
2022-09-26T14:56:19.793Z,80.88889
2022-09-26T15:01:21.540Z,81.19376
2022-09-26T15:06:23.206Z,84.31891
2022-09-26T15:11:24.797Z,87.25581
2022-09-26T15:16:26.461Z,88.60094
2022-09-26T15:21:28.185Z,91.36842
2022-09-26T15:26:29.809Z,99.94937
2022-09-26T15:31:31.561Z,104
2022-09-26T15:36:33.250Z,100.743
2022-09-26T15:41:34.894Z,107.82979
2022-09-26T15:46:36.647Z,105.25654
2022-09-26T15:51:38.365Z,109.5914
2022-09-26T15:56:40.053Z,122.55072
2022-09-26T16:01:41.760Z,106.96296
2022-09-26T16:06:43.398Z,108.70588
2022-09-26T16:11:45.045Z,109.14745
2022-09-26T16:16:46.662Z,113.23077
2022-09-26T16:21:48.281Z,117.52113
2022-09-26T16:26:49.870Z,120.5043
2022-09-26T16:31:51.468Z,116.06704
2022-09-26T16:36:53.125Z,129.54217
2022-09-26T16:42:01.295Z,124.11696
2022-09-26T16:47:04.368Z,136.5
2022-09-26T16:52:05.950Z,142.70968
2022-09-26T16:57:07.579Z,142.07074
2022-09-26T17:02:09.195Z,144
2022-09-26T17:07:10.778Z,149.33333
2022-09-26T17:12:12.401Z,155.68385
2022-09-26T17:17:14.030Z,162.43972
2022-09-26T17:22:15.662Z,163.21708
2022-09-26T17:27:17.283Z,156.41379
2022-09-26T17:32:18.903Z,154.23891
2022-09-26T17:37:20.546Z,155.68385
2022-09-26T17:42:22.177Z,142.07074
2022-09-26T17:47:23.795Z,129.54217
2022-09-26T17:52:25.411Z,128.98498
2022-09-26T17:57:27.039Z,134.71207
2022-09-26T18:02:28.665Z,135.90031
2022-09-26T18:07:30.371Z,132.95706
2022-09-26T18:12:32.028Z,135.90031
2022-09-26T18:17:33.614Z,141.4359
2022-09-26T18:22:35.251Z,145.30719
2022-09-26T18:27:36.950Z,143.35275
2022-09-26T18:32:38.539Z,147.30033
2022-09-26T18:37:40.095Z,156.41379
2022-09-26T18:42:41.726Z,179.1145
2022-09-26T18:47:43.380Z,210.66667
2022-09-26T18:52:45.014Z,190.4
2022-09-26T18:57:46.711Z,197.49794
2022-09-26T19:02:48.515Z,221.47748
2022-09-26T19:07:50.133Z,194.4065
2022-09-26T19:12:51.775Z,190.4
2022-09-26T19:17:53.380Z,219
2022-09-26T19:22:54.965Z,219
2022-09-26T19:27:56.553Z,225.27854
2022-09-26T19:32:58.156Z,199.60166
2022-09-26T19:37:59.771Z,181.83784
2022-09-26T19:43:01.363Z,166.38267
2022-09-26T19:48:03.051Z,161.66784
2022-09-26T19:53:04.708Z,148.65116
2022-09-26T19:58:06.303Z,152.81356
2022-09-26T20:03:07.981Z,160.90141
2022-09-26T20:08:09.690Z,159.38462
2022-09-26T20:13:11.350Z,165.58273
2022-09-26T20:18:12.940Z,168
2022-09-26T20:23:14.570Z,164
2022-09-26T20:28:16.186Z,185.56863
2022-09-26T20:33:17.775Z,166.38267
2022-09-26T20:38:19.365Z,142.07074
2022-09-26T20:43:20.967Z,128.98498
2022-09-26T20:48:22.585Z,135.30435
2022-09-26T20:53:24.148Z,164
2022-09-26T20:58:25.765Z,159.38462
2022-09-26T21:03:27.485Z,152.10811
2022-09-26T21:08:29.065Z,120.5043
2022-09-26T21:13:30.677Z,106.10526
2022-09-26T21:18:32.292Z,107.82979
2022-09-26T21:23:33.997Z,127.33333
2022-09-26T21:28:35.585Z,110.93767
2022-09-26T21:33:37.223Z,111.3913
2022-09-26T21:38:38.819Z,106.53298
2022-09-26T21:43:40.426Z,109.14745
2022-09-26T21:48:42.022Z,91.72182
2022-09-26T21:53:43.621Z,79.68282
2022-09-26T21:58:45.230Z,92.07692
2022-09-26T22:03:46.865Z,111.3913
2022-09-26T22:08:48.444Z,111.84741
2022-09-26T22:13:50.245Z,101.54476
2022-09-26T22:18:51.877Z,87.58974
2022-09-26T22:23:53.457Z,89.62648
2022-09-26T22:28:55.058Z,84.9611
2022-09-26T22:33:56.675Z,83.68254
2022-09-26T22:38:58.307Z,82.11659
2022-09-26T22:43:59.940Z,99.16373
2022-09-26T22:49:01.644Z,94.61125
2022-09-26T22:54:03.283Z,80.28319
2022-09-26T22:59:04.869Z,77.91304
2022-09-26T23:04:06.537Z,78.49782
2022-09-26T23:09:08.213Z,79.38462
2022-09-26T23:14:09.870Z,103.17313
2022-09-26T23:19:11.498Z,115.11111
2022-09-26T23:24:13.048Z,157.88889
2022-09-26T23:29:14.714Z,127.8806
2022-09-26T23:34:16.317Z,86.26328
2022-09-26T23:39:17.916Z,82.42697
2022-09-26T23:44:19.566Z,84.9611
2022-09-26T23:49:21.167Z,76.75862
2022-09-26T23:54:22.846Z,81.19376
2022-09-26T23:59:24.468Z,99.94937
